createdAt,value
2019-02-05T00:00:35.914Z,83.56
2019-02-05T00:03:02.775Z,84.48
2019-02-05T00:05:29.597Z,84.77
2019-02-05T00:07:56.458Z,85.85
2019-02-05T00:10:23.286Z,84.26
2019-02-05T00:12:50.142Z,84.67
2019-02-05T00:15:16.966Z,82.81
2019-02-05T00:17:43.814Z,82.78
2019-02-05T00:20:10.646Z,83.81
2019-02-05T00:22:37.490Z,82.87
2019-02-05T00:25:04.414Z,85.33
2019-02-05T00:27:31.262Z,84.71
2019-02-05T00:29:58.098Z,83.37
2019-02-05T00:32:25.201Z,84.57
2019-02-05T00:34:52.014Z,82.32
2019-02-05T00:37:18.861Z,83.25
2019-02-05T00:39:45.705Z,84.14
2019-02-05T00:42:12.554Z,82.03
2019-02-05T00:44:39.377Z,83.60
2019-02-05T00:47:06.243Z,83.26
2019-02-05T00:49:33.086Z,82.18
2019-02-05T00:51:59.970Z,81.24
2019-02-05T00:54:26.798Z,80.90
2019-02-05T00:56:53.654Z,82.76
2019-02-05T00:59:20.482Z,82.87
2019-02-05T01:01:47.352Z,82.98
2019-02-05T01:04:14.182Z,83.43
2019-02-05T01:06:41.014Z,83.76
2019-02-05T01:09:08.310Z,83.37
2019-02-05T01:11:35.149Z,83.72
2019-02-05T01:14:02.009Z,84.70
2019-02-05T01:16:28.846Z,84.57
2019-02-05T01:18:55.699Z,84.29
2019-02-05T01:21:22.531Z,84.93
2019-02-05T01:23:49.369Z,84.37
2019-02-05T01:26:16.193Z,84.06
2019-02-05T01:28:43.033Z,84.88
2019-02-05T01:31:09.862Z,85.11
2019-02-05T01:33:36.706Z,84.46
2019-02-05T01:36:03.540Z,85.14
2019-02-05T01:38:30.383Z,85.49
2019-02-05T01:40:57.218Z,85.03
2019-02-05T01:43:24.065Z,84.42
2019-02-05T01:45:50.893Z,84.45
2019-02-05T01:48:17.749Z,84.62
2019-02-05T01:50:44.590Z,84.04
2019-02-05T01:53:11.437Z,84.37
2019-02-05T01:55:38.266Z,85.43
2019-02-05T01:58:05.114Z,84.36
2019-02-05T02:00:34.051Z,84.62
2019-02-05T02:03:00.898Z,84.46
2019-02-05T02:05:27.767Z,84.50
2019-02-05T02:07:54.616Z,82.81
2019-02-05T02:10:23.189Z,84.03
2019-02-05T02:12:50.050Z,83.60
2019-02-05T02:15:17.010Z,83.19
2019-02-05T02:17:43.906Z,85.64
2019-02-05T02:20:12.714Z,83.97
2019-02-05T02:22:39.649Z,84.83
2019-02-05T02:25:07.206Z,84.13
2019-02-05T02:27:34.037Z,85.22
2019-02-05T02:30:00.902Z,84.38
2019-02-05T02:32:27.717Z,85.19
2019-02-05T02:34:54.566Z,83.88
2019-02-05T02:37:21.401Z,84.44
2019-02-05T02:39:48.242Z,83.83
2019-02-05T02:42:15.065Z,83.04
2019-02-05T02:44:41.914Z,84.17
2019-02-05T02:47:08.750Z,83.81
2019-02-05T02:49:35.717Z,85.13
2019-02-05T02:52:02.559Z,83.56
2019-02-05T02:54:29.414Z,83.08
2019-02-05T02:57:04.609Z,84.69
2019-02-05T02:59:23.099Z,83.58
2019-02-05T03:01:49.932Z,83.28
2019-02-05T03:04:16.775Z,84.70
2019-02-05T03:06:43.609Z,83.70
2019-02-05T03:09:10.435Z,83.50
2019-02-05T03:11:37.306Z,85.14
2019-02-05T03:14:04.459Z,84.00
2019-02-05T03:16:31.348Z,85.18
2019-02-05T03:18:58.187Z,83.93
2019-02-05T03:21:25.087Z,85.30
2019-02-05T03:23:51.929Z,84.30
2019-02-05T03:26:18.760Z,86.59
2019-02-05T03:28:45.608Z,85.42
2019-02-05T03:31:12.469Z,83.54
2019-02-05T03:33:39.300Z,85.81
2019-02-05T03:36:06.126Z,84.37
2019-02-05T03:38:32.971Z,85.99
2019-02-05T03:41:02.226Z,84.24
2019-02-05T03:43:29.199Z,83.70
2019-02-05T03:45:56.022Z,85.02
2019-02-05T03:48:22.861Z,84.08
2019-02-05T03:50:49.742Z,85.85
2019-02-05T03:53:17.306Z,85.02
2019-02-05T03:56:08.639Z,83.99
2019-02-05T03:58:54.595Z,86.04
2019-02-05T04:01:47.574Z,86.30
2019-02-05T04:04:35.933Z,87.75
2019-02-05T04:07:16.592Z,86.84
2019-02-05T04:10:05.073Z,86.23
2019-02-05T04:12:57.144Z,86.48
2019-02-05T04:15:39.982Z,88.09
2019-02-05T04:18:18.529Z,86.61
2019-02-05T04:21:18.995Z,85.03
2019-02-05T04:24:15.216Z,85.49
2019-02-05T04:27:07.411Z,85.73
2019-02-05T04:30:02.790Z,87.62
2019-02-05T04:32:43.534Z,86.80
2019-02-05T04:35:25.925Z,87.06
2019-02-05T04:38:27.901Z,88.15
2019-02-05T04:41:04.515Z,87.00
2019-02-05T04:44:01.618Z,87.00
2019-02-05T04:46:58.278Z,88.85
2019-02-05T04:49:53.518Z,88.04
2019-02-05T04:52:45.758Z,86.57
2019-02-05T04:55:40.559Z,88.11
2019-02-05T04:58:30.618Z,87.01
2019-02-05T05:01:43.643Z,86.37
2019-02-05T05:04:26.350Z,88.66
2019-02-05T05:07:28.721Z,87.80
2019-02-05T05:09:57.566Z,90.75
2019-02-05T05:12:25.522Z,90.99
2019-02-05T05:14:52.388Z,90.34
2019-02-05T05:17:19.202Z,90.24
2019-02-05T05:19:46.166Z,91.17
2019-02-05T05:22:12.996Z,91.27
2019-02-05T05:24:39.997Z,91.97
2019-02-05T05:27:06.690Z,92.44
2019-02-05T05:29:33.570Z,93.54
2019-02-05T05:32:00.434Z,94.27
2019-02-05T05:34:27.283Z,93.99
2019-02-05T05:36:53.298Z,94.69
2019-02-05T05:39:20.171Z,93.49
2019-02-05T05:41:47.002Z,91.53
2019-02-05T05:44:13.843Z,92.08
2019-02-05T05:46:40.669Z,90.89
2019-02-05T05:49:07.522Z,90.07
2019-02-05T05:51:34.349Z,91.26
2019-02-05T05:54:01.190Z,90.44
2019-02-05T05:56:28.654Z,89.30
2019-02-05T05:58:55.497Z,90.52
2019-02-05T06:01:22.314Z,89.96
2019-02-05T06:03:49.178Z,90.25
2019-02-05T06:06:16.002Z,91.02
2019-02-05T06:08:42.826Z,90.35
2019-02-05T06:11:09.718Z,89.87
2019-02-05T06:13:36.546Z,90.76
2019-02-05T06:16:03.410Z,90.68
2019-02-05T06:18:30.247Z,89.12
2019-02-05T06:20:57.096Z,90.90
2019-02-05T06:23:23.928Z,90.41
2019-02-05T06:25:50.768Z,88.03
2019-02-05T06:28:17.597Z,90.18
2019-02-05T06:30:44.436Z,90.59
2019-02-05T06:33:11.253Z,89.27
2019-02-05T06:35:38.094Z,90.20
2019-02-05T06:38:04.929Z,89.75
2019-02-05T06:40:31.832Z,90.43
2019-02-05T06:42:58.649Z,89.41
2019-02-05T06:45:25.502Z,90.82
2019-02-05T06:47:52.335Z,90.31
2019-02-05T06:50:19.187Z,91.21
2019-02-05T06:52:46.013Z,92.32
2019-02-05T06:55:12.897Z,92.64
2019-02-05T06:57:39.728Z,93.14
2019-02-05T07:00:10.271Z,93.34
2019-02-05T07:02:37.107Z,93.25
2019-02-05T07:05:05.310Z,91.90
2019-02-05T07:07:32.130Z,91.55
2019-02-05T07:09:58.974Z,91.52
2019-02-05T07:12:25.882Z,90.15
2019-02-05T07:14:52.717Z,88.02
2019-02-05T07:17:19.537Z,89.21
2019-02-05T07:19:46.376Z,89.40
2019-02-05T07:22:13.217Z,88.45
2019-02-05T07:24:40.092Z,88.81
2019-02-05T07:27:06.918Z,89.11
2019-02-05T07:29:33.763Z,88.69
2019-02-05T07:32:00.577Z,89.28
2019-02-05T07:34:27.427Z,88.58
2019-02-05T07:36:54.246Z,89.13
2019-02-05T07:39:21.071Z,89.20
2019-02-05T07:41:47.991Z,87.42
2019-02-05T07:44:14.742Z,88.20
2019-02-05T07:46:41.577Z,90.16
2019-02-05T07:49:08.406Z,89.24
2019-02-05T07:51:35.275Z,88.17
2019-02-05T07:54:02.130Z,89.89
2019-02-05T07:56:28.970Z,90.92
2019-02-05T07:58:55.858Z,91.30
2019-02-05T08:01:22.687Z,91.84
2019-02-05T08:03:49.537Z,91.79
2019-02-05T08:06:16.383Z,91.58
2019-02-05T08:08:43.218Z,91.90
2019-02-05T08:11:10.074Z,91.07
2019-02-05T08:13:36.902Z,90.03
2019-02-05T08:16:03.778Z,88.41
2019-02-05T08:18:30.742Z,88.57
2019-02-05T08:20:57.593Z,87.55
2019-02-05T08:23:24.420Z,87.62
2019-02-05T08:25:51.315Z,88.63
2019-02-05T08:28:18.185Z,87.75
2019-02-05T08:30:46.525Z,86.00
2019-02-05T08:33:13.430Z,88.08
2019-02-05T08:35:40.196Z,89.06
2019-02-05T08:38:07.103Z,89.19
2019-02-05T08:40:34.097Z,90.28
2019-02-05T08:43:00.926Z,89.33
2019-02-05T08:45:28.471Z,89.56
2019-02-05T08:47:55.338Z,88.61
2019-02-05T08:50:23.732Z,88.70
2019-02-05T08:52:50.571Z,87.84
2019-02-05T08:55:18.231Z,87.55
2019-02-05T08:57:45.113Z,86.46
2019-02-05T09:00:16.538Z,85.36
2019-02-05T09:02:43.413Z,85.25
2019-02-05T09:05:10.250Z,85.96
2019-02-05T09:07:37.097Z,86.93
2019-02-05T09:10:05.306Z,86.70
2019-02-05T09:12:32.146Z,84.74
2019-02-05T09:14:58.983Z,85.53
2019-02-05T09:17:25.834Z,84.95
2019-02-05T09:19:52.654Z,83.61
2019-02-05T09:22:19.599Z,82.34
2019-02-05T09:24:46.432Z,81.91
2019-02-05T09:27:13.326Z,82.44
2019-02-05T09:29:40.118Z,80.84
2019-02-05T09:32:06.966Z,80.07
2019-02-05T09:34:33.798Z,79.53
2019-02-05T09:37:00.674Z,79.10
2019-02-05T09:39:27.516Z,78.92
2019-02-05T09:41:54.366Z,78.13
2019-02-05T09:44:21.204Z,78.46
2019-02-05T09:46:48.069Z,78.17
2019-02-05T09:49:14.905Z,77.82
2019-02-05T09:51:41.791Z,77.54
2019-02-05T09:54:08.598Z,77.43
2019-02-05T09:56:35.454Z,77.26
2019-02-05T09:59:02.279Z,77.96
2019-02-05T10:01:29.118Z,77.62
2019-02-05T10:03:55.961Z,76.85
2019-02-05T10:06:22.802Z,75.88
2019-02-05T10:08:49.643Z,76.04
2019-02-05T10:11:16.497Z,75.29
2019-02-05T10:13:43.370Z,74.24
2019-02-05T10:16:10.202Z,76.39
2019-02-05T10:18:37.058Z,75.65
2019-02-05T10:21:04.395Z,75.07
2019-02-05T10:23:31.238Z,75.22
2019-02-05T10:25:58.070Z,75.74
2019-02-05T10:28:24.922Z,75.51
2019-02-05T10:30:51.760Z,74.70
2019-02-05T10:33:18.618Z,75.21
2019-02-05T10:35:45.461Z,74.50
2019-02-05T10:38:12.313Z,73.00
2019-02-05T10:40:39.149Z,72.52
2019-02-05T10:43:06.452Z,71.33
2019-02-05T10:45:33.287Z,70.89
2019-02-05T10:48:00.135Z,70.81
2019-02-05T10:50:26.961Z,73.35
2019-02-05T10:52:53.801Z,70.77
2019-02-05T10:55:20.655Z,70.82
2019-02-05T10:57:47.548Z,70.55
2019-02-05T11:00:19.414Z,72.09
2019-02-05T11:02:46.501Z,70.89
2019-02-05T11:05:15.554Z,69.94
2019-02-05T11:07:42.406Z,69.35
2019-02-05T11:10:09.443Z,68.61
2019-02-05T11:12:36.302Z,68.16
2019-02-05T11:15:04.195Z,67.81
2019-02-05T11:17:31.036Z,66.31
2019-02-05T11:19:57.879Z,65.72
2019-02-05T11:22:24.727Z,66.46
2019-02-05T11:24:51.554Z,64.26
2019-02-05T11:27:18.401Z,66.09
2019-02-05T11:29:45.318Z,66.15
2019-02-05T11:32:12.202Z,66.02
2019-02-05T11:34:39.038Z,66.53
2019-02-05T11:37:05.902Z,64.43
2019-02-05T11:39:32.734Z,64.56
2019-02-05T11:41:59.591Z,65.32
2019-02-05T11:44:26.422Z,64.13
2019-02-05T11:46:53.245Z,64.44
2019-02-05T11:49:20.106Z,63.77
2019-02-05T11:51:46.933Z,65.31
2019-02-05T11:54:13.778Z,64.95
2019-02-05T11:56:40.666Z,64.54
2019-02-05T11:59:07.522Z,63.92
2019-02-05T12:01:38.879Z,63.62
2019-02-05T12:04:02.229Z,63.68
2019-02-05T12:06:29.074Z,63.31
2019-02-05T12:08:55.961Z,64.40
2019-02-05T12:11:22.802Z,65.37
2019-02-05T12:13:49.651Z,66.19
2019-02-05T12:16:16.496Z,64.92
2019-02-05T12:18:43.383Z,62.52
2019-02-05T12:21:10.211Z,61.49
2019-02-05T12:23:37.064Z,61.10
2019-02-05T12:26:03.891Z,59.97
2019-02-05T12:28:30.809Z,58.36
2019-02-05T12:30:57.570Z,60.74
2019-02-05T12:33:24.426Z,61.02
2019-02-05T12:35:51.591Z,62.19
2019-02-05T12:38:18.574Z,62.13
2019-02-05T12:40:45.424Z,61.06
2019-02-05T12:43:12.265Z,59.19
2019-02-05T12:45:40.532Z,58.13
2019-02-05T12:48:09.627Z,58.62
2019-02-05T12:50:36.771Z,57.85
2019-02-05T12:53:04.410Z,59.16
2019-02-05T12:55:31.381Z,59.67
2019-02-05T12:57:58.412Z,59.70
2019-02-05T13:00:34.818Z,58.11
2019-02-05T13:03:01.672Z,57.85
2019-02-05T13:05:28.498Z,57.60
2019-02-05T13:07:55.350Z,56.61
2019-02-05T13:10:24.902Z,54.91
2019-02-05T13:12:51.742Z,56.34
2019-02-05T13:15:18.618Z,55.97
2019-02-05T13:17:45.453Z,54.93
2019-02-05T13:20:17.346Z,56.22
2019-02-05T13:22:44.314Z,56.74
2019-02-05T13:25:14.464Z,56.21
2019-02-05T13:27:41.287Z,56.06
2019-02-05T13:30:09.230Z,54.68
2019-02-05T13:32:36.062Z,55.36
2019-02-05T13:35:03.253Z,54.72
2019-02-05T13:37:30.086Z,55.12
2019-02-05T13:39:56.930Z,55.42
2019-02-05T13:42:23.753Z,55.03
2019-02-05T13:44:50.606Z,55.56
2019-02-05T13:47:17.466Z,57.58
2019-02-05T13:49:44.351Z,55.80
2019-02-05T13:52:11.150Z,56.63
2019-02-05T13:54:38.003Z,56.97
2019-02-05T13:57:04.861Z,56.30
2019-02-05T13:59:31.714Z,57.07
2019-02-05T14:01:58.550Z,56.75
2019-02-05T14:04:25.432Z,55.48
2019-02-05T14:06:52.302Z,56.56
2019-02-05T14:09:19.146Z,56.64
2019-02-05T14:11:45.971Z,58.73
2019-02-05T14:14:12.818Z,57.99
2019-02-05T14:16:39.669Z,57.24
2019-02-05T14:19:06.522Z,57.71
2019-02-05T14:21:33.370Z,57.89
2019-02-05T14:24:00.322Z,57.33
2019-02-05T14:26:27.046Z,56.67
2019-02-05T14:28:53.910Z,58.03
2019-02-05T14:31:31.028Z,58.28
2019-02-05T14:33:47.694Z,59.65
2019-02-05T14:36:14.539Z,60.40
2019-02-05T14:38:41.383Z,60.34
2019-02-05T14:41:08.213Z,59.01
2019-02-05T14:43:35.063Z,59.54
2019-02-05T14:46:02.000Z,58.87
2019-02-05T14:48:28.953Z,58.78
2019-02-05T14:50:55.898Z,57.98
2019-02-05T14:53:22.833Z,58.78
2019-02-05T14:55:49.815Z,58.56
2019-02-05T14:58:17.079Z,59.41
2019-02-05T15:00:43.933Z,58.85
2019-02-05T15:03:11.706Z,58.88
2019-02-05T15:05:39.258Z,59.00
2019-02-05T15:08:06.301Z,59.69
2019-02-05T15:10:33.159Z,59.75
2019-02-05T15:12:59.981Z,59.58
2019-02-05T15:15:26.874Z,58.97
2019-02-05T15:17:53.713Z,59.15
2019-02-05T15:20:23.275Z,59.58
2019-02-05T15:22:50.105Z,59.68
2019-02-05T15:25:16.954Z,60.06
2019-02-05T15:27:43.894Z,59.32
2019-02-05T15:30:14.058Z,59.70
2019-02-05T15:33:02.278Z,57.29
2019-02-05T15:35:29.154Z,59.39
2019-02-05T15:37:56.086Z,59.13
2019-02-05T15:40:22.925Z,59.35
2019-02-05T15:42:49.758Z,59.50
2019-02-05T15:45:16.650Z,59.96
2019-02-05T15:47:43.481Z,59.87
2019-02-05T15:50:10.354Z,59.81
2019-02-05T15:52:37.182Z,59.97
2019-02-05T15:55:04.701Z,60.40
2019-02-05T15:57:31.531Z,61.46
2019-02-05T15:59:58.393Z,60.73
2019-02-05T16:02:25.322Z,61.04
2019-02-05T16:04:52.182Z,61.36
2019-02-05T16:07:19.046Z,62.38
2019-02-05T16:09:45.894Z,62.05
2019-02-05T16:12:12.726Z,62.96
2019-02-05T16:14:39.602Z,63.38
2019-02-05T16:17:06.434Z,62.84
2019-02-05T16:19:33.287Z,63.96
2019-02-05T16:22:00.163Z,61.96
2019-02-05T16:24:26.986Z,61.10
2019-02-05T16:26:53.859Z,62.88
2019-02-05T16:29:20.682Z,64.40
2019-02-05T16:31:47.554Z,65.12
2019-02-05T16:34:14.390Z,66.26
2019-02-05T16:36:41.357Z,66.10
2019-02-05T16:39:09.149Z,65.96
2019-02-05T16:41:36.005Z,66.33
2019-02-05T16:44:02.834Z,64.34
2019-02-05T16:46:29.740Z,67.92
2019-02-05T16:48:56.569Z,67.89
2019-02-05T16:51:23.525Z,71.27
2019-02-05T16:53:50.450Z,71.18
2019-02-05T16:56:17.968Z,72.23
2019-02-05T16:58:44.350Z,72.90
2019-02-05T17:01:11.306Z,72.99
2019-02-05T17:03:38.163Z,71.62
2019-02-05T17:06:05.118Z,72.48
2019-02-05T17:08:31.942Z,73.59
2019-02-05T17:10:58.808Z,73.22
2019-02-05T17:13:25.706Z,73.09
2019-02-05T17:15:52.570Z,74.37
2019-02-05T17:18:23.850Z,75.58
2019-02-05T17:20:46.272Z,75.27
2019-02-05T17:23:13.105Z,75.34
2019-02-05T17:25:40.042Z,76.34
2019-02-05T17:28:06.889Z,77.04
2019-02-05T17:30:35.521Z,78.06
2019-02-05T17:33:02.414Z,78.10
2019-02-05T17:35:29.270Z,77.47
2019-02-05T17:37:56.242Z,78.44
2019-02-05T17:40:23.461Z,80.43
2019-02-05T17:42:50.553Z,80.71
2019-02-05T17:45:19.502Z,81.54
2019-02-05T17:47:46.358Z,81.99
2019-02-05T17:50:13.201Z,82.12
2019-02-05T17:52:40.058Z,81.69
2019-02-05T17:55:07.899Z,79.39
2019-02-05T17:57:34.771Z,80.66
2019-02-05T18:00:01.634Z,78.89
2019-02-05T18:02:28.485Z,80.80
2019-02-05T18:04:55.338Z,81.15
2019-02-05T18:07:22.237Z,81.02
2019-02-05T18:09:49.089Z,81.33
2019-02-05T18:12:15.970Z,80.25
2019-02-05T18:14:42.816Z,80.31
2019-02-05T18:17:09.677Z,80.45
2019-02-05T18:19:36.522Z,80.38
2019-02-05T18:22:03.399Z,81.29
2019-02-05T18:24:30.253Z,81.51
2019-02-05T18:26:57.111Z,81.25
2019-02-05T18:29:23.950Z,81.53
2019-02-05T18:31:50.812Z,81.92
2019-02-05T18:34:17.648Z,81.28
2019-02-05T18:36:44.530Z,80.78
2019-02-05T18:39:11.362Z,81.49
2019-02-05T18:41:38.321Z,82.60
2019-02-05T18:44:05.246Z,83.70
2019-02-05T18:46:32.180Z,83.60
2019-02-05T18:49:05.078Z,83.94
2019-02-05T18:51:25.879Z,83.86
2019-02-05T18:53:52.818Z,84.16
2019-02-05T18:56:19.661Z,83.59
2019-02-05T18:58:46.947Z,83.55
2019-02-05T19:01:14.188Z,83.49
2019-02-05T19:03:41.445Z,83.40
2019-02-05T19:06:08.789Z,83.07
2019-02-05T19:08:35.926Z,83.16
2019-02-05T19:11:02.801Z,83.49
2019-02-05T19:13:29.915Z,83.51
2019-02-05T19:15:57.145Z,84.61
2019-02-05T19:18:24.298Z,85.78
2019-02-05T19:20:51.391Z,86.25
2019-02-05T19:23:18.485Z,86.41
2019-02-05T19:26:02.561Z,86.76
2019-02-05T19:28:32.255Z,86.77
2019-02-05T19:31:02.347Z,87.29
2019-02-05T19:33:29.102Z,86.96
2019-02-05T19:35:55.940Z,87.26
2019-02-05T19:38:22.794Z,88.33
2019-02-05T19:40:57.114Z,87.97
2019-02-05T19:43:16.491Z,88.33
2019-02-05T19:45:49.807Z,88.83
2019-02-05T19:48:21.648Z,88.71
2019-02-05T19:50:48.488Z,88.70
2019-02-05T19:53:15.426Z,88.58
2019-02-05T19:55:42.275Z,88.03
2019-02-05T19:58:09.142Z,87.80
2019-02-05T20:00:36.022Z,87.35
2019-02-05T20:03:02.911Z,87.40
2019-02-05T20:05:29.746Z,88.02
2019-02-05T20:07:56.650Z,88.13
2019-02-05T20:10:23.486Z,88.79
2019-02-05T20:12:50.406Z,88.86
2019-02-05T20:15:19.654Z,88.78
2019-02-05T20:17:44.059Z,87.92
2019-02-05T20:20:12.294Z,85.98
2019-02-05T20:22:39.142Z,87.28
2019-02-05T20:25:06.902Z,86.85
2019-02-05T20:27:34.459Z,86.61
2019-02-05T20:30:01.316Z,86.29
2019-02-05T20:32:28.332Z,85.84
2019-02-05T20:34:55.011Z,85.17
2019-02-05T20:37:21.867Z,84.65
2019-02-05T20:39:48.821Z,86.28
2019-02-05T20:42:15.566Z,85.84
2019-02-05T20:44:42.410Z,84.82
2019-02-05T20:47:09.241Z,84.66
2019-02-05T20:49:36.098Z,81.97
2019-02-05T20:52:03.282Z,82.83
2019-02-05T20:54:30.133Z,83.26
2019-02-05T20:56:56.987Z,83.24
2019-02-05T20:59:23.854Z,83.54
2019-02-05T21:01:50.896Z,83.72
2019-02-05T21:04:17.690Z,82.51
2019-02-05T21:06:44.533Z,83.43
2019-02-05T21:09:15.059Z,83.87
2019-02-05T21:11:41.911Z,84.51
2019-02-05T21:14:08.750Z,82.90
2019-02-05T21:16:35.583Z,84.57
2019-02-05T21:19:02.427Z,86.13
2019-02-05T21:21:29.282Z,84.18
2019-02-05T21:23:56.131Z,85.43
2019-02-05T21:26:22.966Z,86.88
2019-02-05T21:28:50.375Z,84.78
2019-02-05T21:31:16.634Z,85.15
2019-02-05T21:33:43.455Z,85.12
2019-02-05T21:36:10.294Z,84.20
2019-02-05T21:38:37.134Z,85.73
2019-02-05T21:41:03.974Z,84.40
2019-02-05T21:43:30.809Z,84.47
2019-02-05T21:46:00.949Z,84.36
2019-02-05T21:48:24.528Z,81.76
2019-02-05T21:50:51.386Z,82.45
2019-02-05T21:53:18.210Z,82.08
2019-02-05T21:55:45.091Z,79.53
2019-02-05T21:58:12.545Z,81.95
2019-02-05T22:00:38.764Z,81.63
2019-02-05T22:03:05.931Z,83.17
2019-02-05T22:05:32.822Z,81.23
2019-02-05T22:07:59.611Z,83.09
2019-02-05T22:10:26.485Z,81.69
2019-02-05T22:12:53.305Z,83.39
2019-02-05T22:15:20.174Z,82.10
2019-02-05T22:17:47.000Z,81.46
2019-02-05T22:20:15.710Z,85.34
2019-02-05T22:22:42.546Z,83.50
2019-02-05T22:25:12.606Z,85.76
2019-02-05T22:27:39.450Z,85.15
2019-02-05T22:30:10.687Z,84.62
2019-02-05T22:32:37.509Z,87.70
2019-02-05T22:35:04.379Z,86.63
2019-02-05T22:37:31.203Z,88.88
2019-02-05T22:39:58.051Z,87.51
2019-02-05T22:42:24.874Z,87.13
2019-02-05T22:44:51.722Z,87.77
2019-02-05T22:47:18.555Z,87.83
2019-02-05T22:49:45.469Z,89.12
2019-02-05T22:52:12.306Z,88.41
2019-02-05T22:54:39.126Z,89.64
2019-02-05T22:57:05.979Z,90.01
2019-02-05T22:59:32.874Z,89.69
2019-02-05T23:02:00.346Z,90.39
2019-02-05T23:04:50.184Z,91.38
2019-02-05T23:07:10.214Z,91.11
2019-02-05T23:09:44.214Z,92.70
2019-02-05T23:12:14.550Z,92.17
2019-02-05T23:14:41.385Z,92.83
2019-02-05T23:17:08.238Z,92.69
2019-02-05T23:19:35.082Z,92.99
2019-02-05T23:22:01.925Z,93.27
2019-02-05T23:24:28.757Z,91.88
2019-02-05T23:26:55.594Z,92.26
2019-02-05T23:29:22.417Z,89.54
2019-02-05T23:31:49.262Z,87.60
2019-02-05T23:34:16.082Z,87.93
2019-02-05T23:36:42.918Z,87.60
2019-02-05T23:39:09.834Z,85.77
2019-02-05T23:41:36.678Z,87.38
2019-02-05T23:44:03.498Z,85.65
2019-02-05T23:46:30.350Z,85.39
2019-02-05T23:48:57.198Z,84.44
2019-02-05T23:51:24.050Z,87.19
2019-02-05T23:53:50.866Z,85.62
2019-02-05T23:56:25.439Z,86.62
2019-02-05T23:58:44.542Z,86.08
